sensor_id;sensor_type;location;lat;lon;timestamp;P1;durP1;ratioP1;P2;durP2;ratioP2
31336;SDS011;22846;42.654;23.314;2023-07-29T00:00:35;7.18;;;2.85;;
31336;SDS011;22846;42.654;23.314;2023-07-29T00:03:00;4.65;;;2.60;;
31336;SDS011;22846;42.654;23.314;2023-07-29T00:05:25;5.50;;;2.53;;
31336;SDS011;22846;42.654;23.314;2023-07-29T00:07:51;4.85;;;2.75;;
31336;SDS011;22846;42.654;23.314;2023-07-29T00:10:17;5.30;;;2.75;;
31336;SDS011;22846;42.654;23.314;2023-07-29T00:12:42;3.38;;;2.35;;
31336;SDS011;22846;42.654;23.314;2023-07-29T00:15:08;4.07;;;2.72;;
31336;SDS011;22846;42.654;23.314;2023-07-29T00:17:34;3.72;;;2.72;;
31336;SDS011;22846;42.654;23.314;2023-07-29T00:19:59;4.40;;;2.72;;
31336;SDS011;22846;42.654;23.314;2023-07-29T00:22:25;4.07;;;2.63;;
31336;SDS011;22846;42.654;23.314;2023-07-29T00:24:53;3.95;;;2.42;;
31336;SDS011;22846;42.654;23.314;2023-07-29T00:27:22;4.75;;;3.00;;
31336;SDS011;22846;42.654;23.314;2023-07-29T00:29:48;4.65;;;2.67;;
31336;SDS011;22846;42.654;23.314;2023-07-29T00:32:14;4.72;;;2.50;;
31336;SDS011;22846;42.654;23.314;2023-07-29T00:34:39;6.05;;;2.80;;
31336;SDS011;22846;42.654;23.314;2023-07-29T00:37:04;7.20;;;2.92;;
31336;SDS011;22846;42.654;23.314;2023-07-29T00:39:31;3.95;;;2.85;;
31336;SDS011;22846;42.654;23.314;2023-07-29T00:41:59;3.25;;;2.67;;
31336;SDS011;22846;42.654;23.314;2023-07-29T00:44:24;4.57;;;2.67;;
31336;SDS011;22846;42.654;23.314;2023-07-29T00:46:50;5.13;;;2.72;;
31336;SDS011;22846;42.654;23.314;2023-07-29T00:49:18;5.93;;;3.20;;
31336;SDS011;22846;42.654;23.314;2023-07-29T00:51:44;4.22;;;2.97;;
31336;SDS011;22846;42.654;23.314;2023-07-29T00:54:10;5.18;;;2.78;;
31336;SDS011;22846;42.654;23.314;2023-07-29T00:56:35;6.88;;;3.00;;
31336;SDS011;22846;42.654;23.314;2023-07-29T00:59:01;6.70;;;3.00;;
31336;SDS011;22846;42.654;23.314;2023-07-29T01:01:27;4.05;;;2.90;;
31336;SDS011;22846;42.654;23.314;2023-07-29T01:03:54;6.53;;;2.90;;
31336;SDS011;22846;42.654;23.314;2023-07-29T01:09:03;4.32;;;2.92;;
31336;SDS011;22846;42.654;23.314;2023-07-29T01:14:55;7.20;;;2.80;;
31336;SDS011;22846;42.654;23.314;2023-07-29T01:17:30;4.57;;;2.75;;
31336;SDS011;22846;42.654;23.314;2023-07-29T01:20:06;4.00;;;3.08;;
31336;SDS011;22846;42.654;23.314;2023-07-29T01:22:34;12.27;;;3.30;;
31336;SDS011;22846;42.654;23.314;2023-07-29T01:25:00;10.63;;;3.15;;
31336;SDS011;22846;42.654;23.314;2023-07-29T01:27:26;8.38;;;3.35;;
31336;SDS011;22846;42.654;23.314;2023-07-29T01:29:52;8.70;;;3.40;;
31336;SDS011;22846;42.654;23.314;2023-07-29T01:35:18;7.57;;;3.40;;
31336;SDS011;22846;42.654;23.314;2023-07-29T01:37:58;7.57;;;2.80;;
31336;SDS011;22846;42.654;23.314;2023-07-29T01:40:27;5.88;;;2.88;;
31336;SDS011;22846;42.654;23.314;2023-07-29T01:42:53;7.20;;;3.05;;
31336;SDS011;22846;42.654;23.314;2023-07-29T01:45:22;7.85;;;3.13;;
31336;SDS011;22846;42.654;23.314;2023-07-29T01:47:50;8.20;;;3.25;;
31336;SDS011;22846;42.654;23.314;2023-07-29T01:50:16;4.05;;;3.05;;
31336;SDS011;22846;42.654;23.314;2023-07-29T01:52:41;8.15;;;3.00;;
31336;SDS011;22846;42.654;23.314;2023-07-29T01:55:07;5.15;;;3.22;;
31336;SDS011;22846;42.654;23.314;2023-07-29T01:57:32;6.55;;;3.13;;
31336;SDS011;22846;42.654;23.314;2023-07-29T01:59:58;5.55;;;3.42;;
31336;SDS011;22846;42.654;23.314;2023-07-29T02:02:24;5.43;;;3.50;;
31336;SDS011;22846;42.654;23.314;2023-07-29T02:04:49;7.18;;;3.35;;
31336;SDS011;22846;42.654;23.314;2023-07-29T02:07:16;5.43;;;2.83;;
31336;SDS011;22846;42.654;23.314;2023-07-29T02:09:43;7.57;;;3.10;;
31336;SDS011;22846;42.654;23.314;2023-07-29T02:12:08;3.80;;;2.80;;
31336;SDS011;22846;42.654;23.314;2023-07-29T02:14:34;7.20;;;3.25;;
31336;SDS011;22846;42.654;23.314;2023-07-29T02:16:59;7.97;;;3.35;;
31336;SDS011;22846;42.654;23.314;2023-07-29T02:19:24;9.05;;;3.10;;
31336;SDS011;22846;42.654;23.314;2023-07-29T02:21:50;7.82;;;3.00;;
31336;SDS011;22846;42.654;23.314;2023-07-29T02:24:15;5.07;;;3.10;;
31336;SDS011;22846;42.654;23.314;2023-07-29T02:26:41;5.85;;;3.10;;
31336;SDS011;22846;42.654;23.314;2023-07-29T02:29:06;5.28;;;3.28;;
31336;SDS011;22846;42.654;23.314;2023-07-29T02:31:32;4.38;;;3.13;;
31336;SDS011;22846;42.654;23.314;2023-07-29T02:33:57;3.28;;;2.97;;
31336;SDS011;22846;42.654;23.314;2023-07-29T02:36:23;5.85;;;3.53;;
31336;SDS011;22846;42.654;23.314;2023-07-29T02:38:48;6.68;;;3.28;;
31336;SDS011;22846;42.654;23.314;2023-07-29T02:41:14;7.28;;;3.47;;
31336;SDS011;22846;42.654;23.314;2023-07-29T02:43:41;4.75;;;2.83;;
31336;SDS011;22846;42.654;23.314;2023-07-29T02:46:07;8.95;;;3.38;;
31336;SDS011;22846;42.654;23.314;2023-07-29T02:48:33;7.72;;;3.38;;
31336;SDS011;22846;42.654;23.314;2023-07-29T02:50:58;8.45;;;3.30;;
31336;SDS011;22846;42.654;23.314;2023-07-29T02:53:24;6.30;;;2.75;;
31336;SDS011;22846;42.654;23.314;2023-07-29T02:55:50;5.43;;;3.40;;
31336;SDS011;22846;42.654;23.314;2023-07-29T02:58:15;4.97;;;3.10;;
31336;SDS011;22846;42.654;23.314;2023-07-29T03:00:41;4.78;;;3.10;;
31336;SDS011;22846;42.654;23.314;2023-07-29T03:03:09;6.07;;;3.30;;
31336;SDS011;22846;42.654;23.314;2023-07-29T03:05:34;9.75;;;3.20;;
31336;SDS011;22846;42.654;23.314;2023-07-29T03:08:00;5.75;;;2.95;;
31336;SDS011;22846;42.654;23.314;2023-07-29T03:10:25;5.32;;;3.42;;
31336;SDS011;22846;42.654;23.314;2023-07-29T03:12:52;7.15;;;3.47;;
31336;SDS011;22846;42.654;23.314;2023-07-29T03:15:22;4.80;;;3.20;;
31336;SDS011;22846;42.654;23.314;2023-07-29T03:17:49;7.32;;;3.50;;
31336;SDS011;22846;42.654;23.314;2023-07-29T03:20:14;5.40;;;3.42;;
31336;SDS011;22846;42.654;23.314;2023-07-29T03:22:40;7.30;;;3.20;;
31336;SDS011;22846;42.654;23.314;2023-07-29T03:25:05;6.40;;;3.67;;
31336;SDS011;22846;42.654;23.314;2023-07-29T03:27:31;7.20;;;3.40;;
31336;SDS011;22846;42.654;23.314;2023-07-29T03:29:56;5.88;;;3.63;;
31336;SDS011;22846;42.654;23.314;2023-07-29T03:32:22;7.07;;;3.42;;
31336;SDS011;22846;42.654;23.314;2023-07-29T03:34:47;4.03;;;3.22;;
31336;SDS011;22846;42.654;23.314;2023-07-29T03:37:13;5.45;;;3.40;;
31336;SDS011;22846;42.654;23.314;2023-07-29T03:39:38;7.03;;;3.00;;
31336;SDS011;22846;42.654;23.314;2023-07-29T03:42:04;6.07;;;3.15;;
31336;SDS011;22846;42.654;23.314;2023-07-29T03:44:29;4.53;;;2.83;;
31336;SDS011;22846;42.654;23.314;2023-07-29T03:46:56;7.43;;;3.10;;
31336;SDS011;22846;42.654;23.314;2023-07-29T03:49:21;4.82;;;2.70;;
31336;SDS011;22846;42.654;23.314;2023-07-29T03:51:47;4.82;;;2.85;;
31336;SDS011;22846;42.654;23.314;2023-07-29T03:54:12;4.38;;;2.70;;
31336;SDS011;22846;42.654;23.314;2023-07-29T03:56:37;4.63;;;2.90;;
31336;SDS011;22846;42.654;23.314;2023-07-29T03:59:03;5.40;;;3.03;;
31336;SDS011;22846;42.654;23.314;2023-07-29T04:01:30;3.90;;;2.63;;
31336;SDS011;22846;42.654;23.314;2023-07-29T04:03:55;6.70;;;2.65;;
31336;SDS011;22846;42.654;23.314;2023-07-29T04:06:21;4.07;;;2.60;;
31336;SDS011;22846;42.654;23.314;2023-07-29T04:08:46;4.60;;;2.38;;
31336;SDS011;22846;42.654;23.314;2023-07-29T04:11:12;4.53;;;2.75;;
31336;SDS011;22846;42.654;23.314;2023-07-29T04:13:37;4.70;;;2.70;;
31336;SDS011;22846;42.654;23.314;2023-07-29T04:16:03;4.43;;;2.50;;
31336;SDS011;22846;42.654;23.314;2023-07-29T04:18:29;3.97;;;2.47;;
31336;SDS011;22846;42.654;23.314;2023-07-29T04:20:55;4.40;;;2.70;;
31336;SDS011;22846;42.654;23.314;2023-07-29T04:23:20;3.35;;;2.53;;
31336;SDS011;22846;42.654;23.314;2023-07-29T04:25:45;4.60;;;2.72;;
31336;SDS011;22846;42.654;23.314;2023-07-29T04:28:11;7.72;;;3.00;;
31336;SDS011;22846;42.654;23.314;2023-07-29T04:30:36;3.78;;;2.70;;
31336;SDS011;22846;42.654;23.314;2023-07-29T04:33:02;4.95;;;2.80;;
31336;SDS011;22846;42.654;23.314;2023-07-29T04:35:27;4.97;;;3.08;;
31336;SDS011;22846;42.654;23.314;2023-07-29T04:37:53;5.18;;;2.85;;
31336;SDS011;22846;42.654;23.314;2023-07-29T04:40:18;3.88;;;2.75;;
31336;SDS011;22846;42.654;23.314;2023-07-29T04:42:43;4.13;;;2.47;;
31336;SDS011;22846;42.654;23.314;2023-07-29T04:45:09;5.70;;;2.92;;
31336;SDS011;22846;42.654;23.314;2023-07-29T04:47:34;3.22;;;2.50;;
31336;SDS011;22846;42.654;23.314;2023-07-29T04:50:00;5.20;;;2.85;;
31336;SDS011;22846;42.654;23.314;2023-07-29T04:52:25;4.35;;;2.70;;
31336;SDS011;22846;42.654;23.314;2023-07-29T04:54:51;4.53;;;2.67;;
31336;SDS011;22846;42.654;23.314;2023-07-29T04:57:16;3.83;;;2.38;;
31336;SDS011;22846;42.654;23.314;2023-07-29T04:59:41;6.38;;;2.92;;
31336;SDS011;22846;42.654;23.314;2023-07-29T05:02:07;3.45;;;2.63;;
31336;SDS011;22846;42.654;23.314;2023-07-29T05:04:32;5.75;;;2.83;;
31336;SDS011;22846;42.654;23.314;2023-07-29T05:06:57;4.78;;;2.63;;
31336;SDS011;22846;42.654;23.314;2023-07-29T05:09:23;4.13;;;3.15;;
31336;SDS011;22846;42.654;23.314;2023-07-29T05:11:48;3.85;;;2.78;;
31336;SDS011;22846;42.654;23.314;2023-07-29T05:14:14;4.50;;;2.97;;
31336;SDS011;22846;42.654;23.314;2023-07-29T05:16:41;4.32;;;2.63;;
31336;SDS011;22846;42.654;23.314;2023-07-29T05:19:07;3.60;;;2.83;;
31336;SDS011;22846;42.654;23.314;2023-07-29T05:21:32;4.97;;;2.95;;
31336;SDS011;22846;42.654;23.314;2023-07-29T05:23:58;5.20;;;2.70;;
31336;SDS011;22846;42.654;23.314;2023-07-29T05:26:23;5.38;;;2.40;;
31336;SDS011;22846;42.654;23.314;2023-07-29T05:28:49;4.55;;;3.08;;
31336;SDS011;22846;42.654;23.314;2023-07-29T05:31:14;3.88;;;2.80;;
31336;SDS011;22846;42.654;23.314;2023-07-29T05:33:40;6.28;;;3.15;;
31336;SDS011;22846;42.654;23.314;2023-07-29T05:36:05;4.75;;;3.15;;
31336;SDS011;22846;42.654;23.314;2023-07-29T05:38:31;4.07;;;3.03;;
31336;SDS011;22846;42.654;23.314;2023-07-29T05:40:56;5.88;;;2.80;;
31336;SDS011;22846;42.654;23.314;2023-07-29T05:43:21;4.60;;;2.90;;
31336;SDS011;22846;42.654;23.314;2023-07-29T05:45:48;6.07;;;3.13;;
31336;SDS011;22846;42.654;23.314;2023-07-29T05:48:14;4.85;;;3.10;;
31336;SDS011;22846;42.654;23.314;2023-07-29T05:50:39;5.32;;;2.78;;
31336;SDS011;22846;42.654;23.314;2023-07-29T05:53:04;4.88;;;2.85;;
31336;SDS011;22846;42.654;23.314;2023-07-29T05:55:30;6.57;;;2.47;;
31336;SDS011;22846;42.654;23.314;2023-07-29T05:57:55;4.97;;;3.10;;
31336;SDS011;22846;42.654;23.314;2023-07-29T06:00:21;4.88;;;2.90;;
31336;SDS011;22846;42.654;23.314;2023-07-29T06:02:46;3.38;;;2.90;;
31336;SDS011;22846;42.654;23.314;2023-07-29T06:05:11;3.83;;;2.83;;
31336;SDS011;22846;42.654;23.314;2023-07-29T06:07:37;5.15;;;2.60;;
31336;SDS011;22846;42.654;23.314;2023-07-29T06:10:03;7.78;;;3.20;;
31336;SDS011;22846;42.654;23.314;2023-07-29T06:12:28;5.07;;;2.92;;
31336;SDS011;22846;42.654;23.314;2023-07-29T06:14:54;4.60;;;2.88;;
31336;SDS011;22846;42.654;23.314;2023-07-29T06:17:19;4.55;;;2.65;;
31336;SDS011;22846;42.654;23.314;2023-07-29T06:19:44;5.57;;;2.92;;
31336;SDS011;22846;42.654;23.314;2023-07-29T06:22:10;3.42;;;3.00;;
31336;SDS011;22846;42.654;23.314;2023-07-29T06:24:35;3.70;;;2.88;;
31336;SDS011;22846;42.654;23.314;2023-07-29T06:27:01;7.85;;;3.03;;
31336;SDS011;22846;42.654;23.314;2023-07-29T06:29:26;5.45;;;3.17;;
31336;SDS011;22846;42.654;23.314;2023-07-29T06:31:51;3.25;;;2.50;;
31336;SDS011;22846;42.654;23.314;2023-07-29T06:34:17;4.70;;;3.20;;
31336;SDS011;22846;42.654;23.314;2023-07-29T06:36:43;4.88;;;2.55;;
31336;SDS011;22846;42.654;23.314;2023-07-29T06:39:09;6.50;;;3.22;;
31336;SDS011;22846;42.654;23.314;2023-07-29T06:41:34;5.28;;;3.38;;
31336;SDS011;22846;42.654;23.314;2023-07-29T06:44:00;5.40;;;2.88;;
31336;SDS011;22846;42.654;23.314;2023-07-29T06:46:25;3.45;;;2.30;;
31336;SDS011;22846;42.654;23.314;2023-07-29T06:48:51;9.20;;;3.67;;
31336;SDS011;22846;42.654;23.314;2023-07-29T06:51:16;10.57;;;5.95;;
31336;SDS011;22846;42.654;23.314;2023-07-29T06:53:42;10.48;;;5.43;;
31336;SDS011;22846;42.654;23.314;2023-07-29T06:56:07;6.70;;;3.92;;
31336;SDS011;22846;42.654;23.314;2023-07-29T06:58:32;6.80;;;3.55;;
31336;SDS011;22846;42.654;23.314;2023-07-29T07:00:58;8.60;;;3.67;;
31336;SDS011;22846;42.654;23.314;2023-07-29T07:03:23;10.48;;;3.60;;
31336;SDS011;22846;42.654;23.314;2023-07-29T07:05:48;8.18;;;3.60;;
31336;SDS011;22846;42.654;23.314;2023-07-29T07:08:15;7.30;;;3.60;;
31336;SDS011;22846;42.654;23.314;2023-07-29T07:10:40;6.22;;;3.42;;
31336;SDS011;22846;42.654;23.314;2023-07-29T07:13:06;5.57;;;3.60;;
31336;SDS011;22846;42.654;23.314;2023-07-29T07:15:31;4.93;;;3.35;;
31336;SDS011;22846;42.654;23.314;2023-07-29T07:17:57;8.40;;;3.40;;
31336;SDS011;22846;42.654;23.314;2023-07-29T07:20:22;6.10;;;3.17;;
31336;SDS011;22846;42.654;23.314;2023-07-29T07:22:47;6.53;;;3.40;;
31336;SDS011;22846;42.654;23.314;2023-07-29T07:25:13;5.18;;;3.30;;
31336;SDS011;22846;42.654;23.314;2023-07-29T07:27:38;7.78;;;3.50;;
31336;SDS011;22846;42.654;23.314;2023-07-29T07:30:04;7.65;;;3.53;;
31336;SDS011;22846;42.654;23.314;2023-07-29T07:32:30;6.32;;;3.25;;
31336;SDS011;22846;42.654;23.314;2023-07-29T07:34:55;4.90;;;3.08;;
31336;SDS011;22846;42.654;23.314;2023-07-29T07:37:20;5.80;;;3.08;;
31336;SDS011;22846;42.654;23.314;2023-07-29T07:39:46;5.35;;;3.33;;
31336;SDS011;22846;42.654;23.314;2023-07-29T07:42:11;10.02;;;3.10;;
31336;SDS011;22846;42.654;23.314;2023-07-29T07:44:37;4.82;;;3.03;;
31336;SDS011;22846;42.654;23.314;2023-07-29T07:47:02;4.70;;;2.83;;
31336;SDS011;22846;42.654;23.314;2023-07-29T07:49:28;7.35;;;3.10;;
31336;SDS011;22846;42.654;23.314;2023-07-29T07:51:54;5.47;;;2.80;;
31336;SDS011;22846;42.654;23.314;2023-07-29T07:54:19;6.28;;;3.20;;
31336;SDS011;22846;42.654;23.314;2023-07-29T07:56:44;6.70;;;3.40;;
31336;SDS011;22846;42.654;23.314;2023-07-29T07:59:10;5.82;;;3.00;;
31336;SDS011;22846;42.654;23.314;2023-07-29T08:01:36;7.47;;;3.30;;
31336;SDS011;22846;42.654;23.314;2023-07-29T08:04:02;7.47;;;3.30;;
31336;SDS011;22846;42.654;23.314;2023-07-29T08:06:27;4.20;;;2.92;;
31336;SDS011;22846;42.654;23.314;2023-07-29T08:08:53;5.30;;;3.10;;
31336;SDS011;22846;42.654;23.314;2023-07-29T08:11:18;6.32;;;3.35;;
31336;SDS011;22846;42.654;23.314;2023-07-29T08:13:43;4.45;;;2.97;;
31336;SDS011;22846;42.654;23.314;2023-07-29T08:16:09;7.10;;;3.15;;
31336;SDS011;22846;42.654;23.314;2023-07-29T08:18:34;7.38;;;5.10;;
31336;SDS011;22846;42.654;23.314;2023-07-29T08:21:00;13.52;;;9.23;;
31336;SDS011;22846;42.654;23.314;2023-07-29T08:23:29;14.68;;;5.63;;
31336;SDS011;22846;42.654;23.314;2023-07-29T08:25:56;13.60;;;5.60;;
31336;SDS011;22846;42.654;23.314;2023-07-29T08:28:33;6.82;;;5.05;;
31336;SDS011;22846;42.654;23.314;2023-07-29T08:31:01;15.70;;;7.65;;
31336;SDS011;22846;42.654;23.314;2023-07-29T08:33:27;10.07;;;6.30;;
31336;SDS011;22846;42.654;23.314;2023-07-29T08:35:52;21.52;;;11.55;;
31336;SDS011;22846;42.654;23.314;2023-07-29T08:38:18;23.52;;;15.07;;
31336;SDS011;22846;42.654;23.314;2023-07-29T08:40:53;19.30;;;11.98;;
31336;SDS011;22846;42.654;23.314;2023-07-29T08:43:25;41.38;;;28.52;;
31336;SDS011;22846;42.654;23.314;2023-07-29T08:45:55;16.08;;;10.35;;
31336;SDS011;22846;42.654;23.314;2023-07-29T08:48:23;22.27;;;16.08;;
31336;SDS011;22846;42.654;23.314;2023-07-29T08:51:10;24.20;;;16.48;;
31336;SDS011;22846;42.654;23.314;2023-07-29T08:53:36;21.80;;;12.70;;
31336;SDS011;22846;42.654;23.314;2023-07-29T08:56:02;18.48;;;12.65;;
31336;SDS011;22846;42.654;23.314;2023-07-29T08:58:28;15.88;;;10.57;;
31336;SDS011;22846;42.654;23.314;2023-07-29T09:00:54;18.65;;;12.95;;
31336;SDS011;22846;42.654;23.314;2023-07-29T09:03:20;15.80;;;11.13;;
31336;SDS011;22846;42.654;23.314;2023-07-29T09:05:46;20.25;;;13.38;;
31336;SDS011;22846;42.654;23.314;2023-07-29T09:08:12;17.52;;;10.48;;
31336;SDS011;22846;42.654;23.314;2023-07-29T09:10:38;9.93;;;6.25;;
31336;SDS011;22846;42.654;23.314;2023-07-29T09:13:04;12.25;;;7.30;;
31336;SDS011;22846;42.654;23.314;2023-07-29T09:15:31;10.77;;;7.00;;
31336;SDS011;22846;42.654;23.314;2023-07-29T09:17:58;10.20;;;5.93;;
31336;SDS011;22846;42.654;23.314;2023-07-29T09:20:27;12.55;;;6.40;;
31336;SDS011;22846;42.654;23.314;2023-07-29T09:22:58;7.40;;;5.65;;
31336;SDS011;22846;42.654;23.314;2023-07-29T09:25:29;7.35;;;5.20;;
31336;SDS011;22846;42.654;23.314;2023-07-29T09:28:01;6.25;;;4.40;;
31336;SDS011;22846;42.654;23.314;2023-07-29T09:30:32;7.38;;;4.80;;
31336;SDS011;22846;42.654;23.314;2023-07-29T09:32:58;6.22;;;4.35;;
31336;SDS011;22846;42.654;23.314;2023-07-29T09:35:27;6.45;;;4.20;;
31336;SDS011;22846;42.654;23.314;2023-07-29T09:37:53;6.53;;;4.05;;
31336;SDS011;22846;42.654;23.314;2023-07-29T09:40:19;5.80;;;4.10;;
31336;SDS011;22846;42.654;23.314;2023-07-29T09:42:50;6.80;;;3.90;;
31336;SDS011;22846;42.654;23.314;2023-07-29T09:47:46;12.05;;;4.07;;
31336;SDS011;22846;42.654;23.314;2023-07-29T09:50:12;5.40;;;3.63;;
31336;SDS011;22846;42.654;23.314;2023-07-29T09:52:38;11.18;;;6.20;;
31336;SDS011;22846;42.654;23.314;2023-07-29T09:55:03;18.42;;;10.30;;
31336;SDS011;22846;42.654;23.314;2023-07-29T09:57:29;11.48;;;5.80;;
31336;SDS011;22846;42.654;23.314;2023-07-29T09:59:55;8.65;;;5.45;;
31336;SDS011;22846;42.654;23.314;2023-07-29T10:02:22;13.93;;;5.95;;
31336;SDS011;22846;42.654;23.314;2023-07-29T10:04:50;9.75;;;4.90;;
31336;SDS011;22846;42.654;23.314;2023-07-29T10:07:17;8.43;;;4.93;;
31336;SDS011;22846;42.654;23.314;2023-07-29T10:09:43;8.32;;;4.47;;
31336;SDS011;22846;42.654;23.314;2023-07-29T10:12:10;13.50;;;4.45;;
31336;SDS011;22846;42.654;23.314;2023-07-29T10:14:36;13.60;;;4.80;;
31336;SDS011;22846;42.654;23.314;2023-07-29T10:17:04;11.13;;;5.18;;
31336;SDS011;22846;42.654;23.314;2023-07-29T10:19:30;11.23;;;4.50;;
31336;SDS011;22846;42.654;23.314;2023-07-29T10:21:57;11.30;;;4.50;;
31336;SDS011;22846;42.654;23.314;2023-07-29T10:24:28;13.80;;;4.20;;
31336;SDS011;22846;42.654;23.314;2023-07-29T10:26:59;8.45;;;3.78;;
31336;SDS011;22846;42.654;23.314;2023-07-29T10:29:32;10.43;;;3.75;;
31336;SDS011;22846;42.654;23.314;2023-07-29T10:32:03;6.00;;;3.50;;
31336;SDS011;22846;42.654;23.314;2023-07-29T10:34:30;6.70;;;2.90;;
31336;SDS011;22846;42.654;23.314;2023-07-29T10:36:57;7.00;;;3.10;;
31336;SDS011;22846;42.654;23.314;2023-07-29T10:39:24;4.50;;;2.63;;
31336;SDS011;22846;42.654;23.314;2023-07-29T10:41:54;7.30;;;2.80;;
31336;SDS011;22846;42.654;23.314;2023-07-29T10:49:42;3.15;;;2.03;;
31336;SDS011;22846;42.654;23.314;2023-07-29T10:54:44;3.63;;;2.33;;
31336;SDS011;22846;42.654;23.314;2023-07-29T10:57:14;5.40;;;2.10;;
31336;SDS011;22846;42.654;23.314;2023-07-29T11:00:06;2.33;;;1.80;;
31336;SDS011;22846;42.654;23.314;2023-07-29T11:02:36;3.65;;;1.90;;
31336;SDS011;22846;42.654;23.314;2023-07-29T11:05:06;4.22;;;1.80;;
31336;SDS011;22846;42.654;23.314;2023-07-29T11:07:43;4.15;;;1.73;;
31336;SDS011;22846;42.654;23.314;2023-07-29T11:10:13;6.13;;;1.80;;
31336;SDS011;22846;42.654;23.314;2023-07-29T11:12:40;3.28;;;1.60;;
31336;SDS011;22846;42.654;23.314;2023-07-29T11:17:35;4.53;;;1.73;;
31336;SDS011;22846;42.654;23.314;2023-07-29T11:20:13;3.50;;;1.83;;
31336;SDS011;22846;42.654;23.314;2023-07-29T11:22:39;9.77;;;2.45;;
31336;SDS011;22846;42.654;23.314;2023-07-29T11:25:09;3.97;;;1.75;;
31336;SDS011;22846;42.654;23.314;2023-07-29T11:27:38;7.03;;;2.22;;
31336;SDS011;22846;42.654;23.314;2023-07-29T11:30:05;3.53;;;1.90;;
31336;SDS011;22846;42.654;23.314;2023-07-29T11:32:33;11.88;;;1.58;;
31336;SDS011;22846;42.654;23.314;2023-07-29T11:35:10;3.45;;;1.60;;
31336;SDS011;22846;42.654;23.314;2023-07-29T11:37:43;4.15;;;1.70;;
31336;SDS011;22846;42.654;23.314;2023-07-29T11:40:12;4.07;;;2.08;;
31336;SDS011;22846;42.654;23.314;2023-07-29T11:42:41;7.78;;;2.10;;
31336;SDS011;22846;42.654;23.314;2023-07-29T11:45:07;3.70;;;1.90;;
31336;SDS011;22846;42.654;23.314;2023-07-29T11:47:34;2.63;;;1.73;;
31336;SDS011;22846;42.654;23.314;2023-07-29T11:50:02;3.10;;;1.67;;
31336;SDS011;22846;42.654;23.314;2023-07-29T11:52:29;3.58;;;1.83;;
31336;SDS011;22846;42.654;23.314;2023-07-29T11:54:57;5.13;;;1.88;;
31336;SDS011;22846;42.654;23.314;2023-07-29T11:57:23;1.90;;;1.38;;
31336;SDS011;22846;42.654;23.314;2023-07-29T11:59:49;2.67;;;1.60;;
31336;SDS011;22846;42.654;23.314;2023-07-29T12:02:16;2.92;;;1.50;;
31336;SDS011;22846;42.654;23.314;2023-07-29T12:04:43;3.75;;;1.70;;
31336;SDS011;22846;42.654;23.314;2023-07-29T12:07:12;3.50;;;1.50;;
31336;SDS011;22846;42.654;23.314;2023-07-29T12:09:37;2.58;;;1.50;;
31336;SDS011;22846;42.654;23.314;2023-07-29T12:12:04;2.60;;;1.42;;
31336;SDS011;22846;42.654;23.314;2023-07-29T12:14:31;3.33;;;1.60;;
31336;SDS011;22846;42.654;23.314;2023-07-29T12:16:56;2.75;;;1.73;;
31336;SDS011;22846;42.654;23.314;2023-07-29T12:19:31;3.33;;;1.40;;
31336;SDS011;22846;42.654;23.314;2023-07-29T12:22:00;1.98;;;1.33;;
31336;SDS011;22846;42.654;23.314;2023-07-29T12:24:26;2.92;;;1.60;;
31336;SDS011;22846;42.654;23.314;2023-07-29T12:26:52;3.13;;;1.50;;
31336;SDS011;22846;42.654;23.314;2023-07-29T12:29:18;2.00;;;1.50;;
31336;SDS011;22846;42.654;23.314;2023-07-29T12:31:47;3.50;;;1.70;;
31336;SDS011;22846;42.654;23.314;2023-07-29T12:34:19;4.72;;;1.70;;
31336;SDS011;22846;42.654;23.314;2023-07-29T12:36:46;4.57;;;1.90;;
31336;SDS011;22846;42.654;23.314;2023-07-29T12:39:19;4.93;;;1.65;;
31336;SDS011;22846;42.654;23.314;2023-07-29T12:41:47;4.32;;;2.05;;
31336;SDS011;22846;42.654;23.314;2023-07-29T12:44:13;5.43;;;1.90;;
31336;SDS011;22846;42.654;23.314;2023-07-29T12:46:39;3.47;;;1.85;;
31336;SDS011;22846;42.654;23.314;2023-07-29T12:49:04;7.38;;;2.10;;
31336;SDS011;22846;42.654;23.314;2023-07-29T12:51:30;4.85;;;1.85;;
31336;SDS011;22846;42.654;23.314;2023-07-29T12:53:56;5.35;;;1.90;;
31336;SDS011;22846;42.654;23.314;2023-07-29T12:56:21;6.88;;;1.88;;
31336;SDS011;22846;42.654;23.314;2023-07-29T12:58:46;3.45;;;1.70;;
31336;SDS011;22846;42.654;23.314;2023-07-29T13:01:12;4.60;;;1.90;;
31336;SDS011;22846;42.654;23.314;2023-07-29T13:03:44;10.93;;;1.63;;
31336;SDS011;22846;42.654;23.314;2023-07-29T13:06:09;4.60;;;1.63;;
31336;SDS011;22846;42.654;23.314;2023-07-29T13:08:35;7.05;;;1.40;;
31336;SDS011;22846;42.654;23.314;2023-07-29T13:11:00;6.72;;;1.70;;
31336;SDS011;22846;42.654;23.314;2023-07-29T13:13:26;21.48;;;6.25;;
31336;SDS011;22846;42.654;23.314;2023-07-29T13:15:51;8.57;;;3.92;;
31336;SDS011;22846;42.654;23.314;2023-07-29T13:18:17;5.55;;;2.65;;
31336;SDS011;22846;42.654;23.314;2023-07-29T13:20:43;11.60;;;3.03;;
31336;SDS011;22846;42.654;23.314;2023-07-29T13:23:08;32.25;;;10.27;;
31336;SDS011;22846;42.654;23.314;2023-07-29T13:25:34;19.15;;;5.82;;
31336;SDS011;22846;42.654;23.314;2023-07-29T13:27:59;20.42;;;6.28;;
31336;SDS011;22846;42.654;23.314;2023-07-29T13:30:24;22.38;;;7.05;;
31336;SDS011;22846;42.654;23.314;2023-07-29T13:32:50;32.90;;;10.23;;
31336;SDS011;22846;42.654;23.314;2023-07-29T13:35:15;34.10;;;9.65;;
31336;SDS011;22846;42.654;23.314;2023-07-29T13:37:40;34.47;;;9.85;;
31336;SDS011;22846;42.654;23.314;2023-07-29T13:40:06;36.42;;;10.68;;
31336;SDS011;22846;42.654;23.314;2023-07-29T13:42:32;32.85;;;9.70;;
31336;SDS011;22846;42.654;23.314;2023-07-29T13:44:57;25.42;;;8.50;;
31336;SDS011;22846;42.654;23.314;2023-07-29T13:47:22;20.15;;;8.65;;
31336;SDS011;22846;42.654;23.314;2023-07-29T13:49:48;29.73;;;8.02;;
31336;SDS011;22846;42.654;23.314;2023-07-29T13:52:13;21.92;;;7.30;;
31336;SDS011;22846;42.654;23.314;2023-07-29T13:54:39;27.50;;;8.20;;
31336;SDS011;22846;42.654;23.314;2023-07-29T13:57:04;15.63;;;6.57;;
31336;SDS011;22846;42.654;23.314;2023-07-29T13:59:31;20.40;;;6.38;;
31336;SDS011;22846;42.654;23.314;2023-07-29T14:01:57;24.00;;;6.65;;
31336;SDS011;22846;42.654;23.314;2023-07-29T14:04:22;15.63;;;6.55;;
31336;SDS011;22846;42.654;23.314;2023-07-29T14:06:48;23.63;;;6.15;;
31336;SDS011;22846;42.654;23.314;2023-07-29T14:09:13;15.63;;;5.68;;
31336;SDS011;22846;42.654;23.314;2023-07-29T14:11:38;20.13;;;5.65;;
31336;SDS011;22846;42.654;23.314;2023-07-29T14:14:04;15.98;;;5.25;;
31336;SDS011;22846;42.654;23.314;2023-07-29T14:16:29;16.65;;;5.25;;
31336;SDS011;22846;42.654;23.314;2023-07-29T14:18:55;17.30;;;5.18;;
31336;SDS011;22846;42.654;23.314;2023-07-29T14:21:20;12.75;;;4.80;;
31336;SDS011;22846;42.654;23.314;2023-07-29T14:23:45;14.68;;;4.78;;
31336;SDS011;22846;42.654;23.314;2023-07-29T14:26:11;12.68;;;4.45;;
31336;SDS011;22846;42.654;23.314;2023-07-29T14:28:36;11.60;;;4.30;;
31336;SDS011;22846;42.654;23.314;2023-07-29T14:31:02;11.45;;;4.63;;
31336;SDS011;22846;42.654;23.314;2023-07-29T14:33:27;13.80;;;4.15;;
31336;SDS011;22846;42.654;23.314;2023-07-29T14:35:53;11.68;;;3.90;;
31336;SDS011;22846;42.654;23.314;2023-07-29T14:38:18;13.45;;;4.35;;
31336;SDS011;22846;42.654;23.314;2023-07-29T14:40:44;14.57;;;4.45;;
31336;SDS011;22846;42.654;23.314;2023-07-29T14:43:12;11.70;;;4.32;;
31336;SDS011;22846;42.654;23.314;2023-07-29T14:45:38;10.10;;;4.03;;
31336;SDS011;22846;42.654;23.314;2023-07-29T14:48:03;9.30;;;3.90;;